Time;durP1;ratioP1;P1;durP2;ratioP2;P2;SDS_P1;SDS_P2;PMS_P1;PMS_P2;Temp;Humidity;BMP_temperature;BMP_pressure;BME280_temperature;BME280_humidity;BME280_pressure;Samples;Min_cycle;Max_cycle;Signal;HPM_P1;HPM_P2
2022/04/17 00:00:36;;;;;;;1.57;1.00;;;;;;;4.91;68.60;100553.88;1709919;82;21014;-69
2022/04/17 00:03:02;;;;;;;2.50;1.45;;;;;;;4.92;68.71;100546.81;1697422;84;21093;-69
2022/04/17 00:05:28;;;;;;;;;;;;;;;4.91;69.07;100543.81;1700056;84;21110;-70
2022/04/17 00:07:55;;;;;;;3.13;1.73;;;;;;;4.91;69.08;100549.09;1697566;84;20506;-69
2022/04/17 00:10:21;;;;;;;1.37;0.95;;;;;;;4.91;69.32;100547.27;1697612;84;21044;-71
2022/04/17 00:12:49;;;;;;;1.97;1.40;;;;;;;4.94;69.24;100549.64;1682470;84;21548;-69
2022/04/17 00:15:16;;;;;;;0.80;0.80;;;;;;;4.97;69.35;100553.78;1683113;85;21379;-69
2022/04/17 00:17:44;;;;;;;1.30;1.10;;;;;;;4.97;69.62;100544.53;1682957;85;21059;-70
2022/04/17 00:20:20;;;;;;;0.97;0.87;;;;;;;4.93;69.81;100547.13;1682851;85;21021;-70
2022/04/17 00:22:46;;;;;;;0.90;0.90;;;;;;;4.87;70.24;100543.27;1687351;84;21124;-70
2022/04/17 00:25:14;;;;;;;0.70;0.70;;;;;;;4.80;70.66;100549.64;1697605;84;21187;-70
2022/04/17 00:27:42;;;;;;;1.07;0.60;;;;;;;4.81;70.77;100554.42;1697674;84;21102;-68
2022/04/17 00:30:09;;;;;;;0.62;0.62;;;;;;;4.86;70.74;100547.73;1697567;84;21051;-70
2022/04/17 00:32:37;;;;;;;0.93;0.63;;;;;;;4.92;70.83;100542.84;1696667;84;21130;-69
2022/04/17 00:35:05;;;;;;;;;;;;;;;4.95;70.68;100549.14;1711133;83;21087;-70
2022/04/17 00:37:32;;;;;;;1.37;1.00;;;;;;;4.96;70.66;100552.14;1713075;83;20207;-70
2022/04/17 00:39:59;;;;;;;0.80;0.80;;;;;;;4.87;71.03;100545.41;1711540;83;21524;-69
2022/04/17 00:42:26;;;;;;;1.07;0.83;;;;;;;4.84;71.21;100539.13;1711712;83;21075;-69
2022/04/17 00:44:52;;;;;;;2.20;0.90;;;;;;;4.83;71.41;100549.33;1694827;83;21025;-69
2022/04/17 00:47:19;;;;;;;1.27;1.00;;;;;;;4.82;71.46;100551.64;1717249;83;21068;-69
2022/04/17 00:49:46;;;;;;;1.65;1.55;;;;;;;4.81;71.78;100547.33;1714359;83;21104;-69
2022/04/17 00:52:15;;;;;;;1.00;0.80;;;;;;;4.81;71.89;100547.82;1715049;83;21059;-69
2022/04/17 00:54:44;;;;;;;1.23;1.13;;;;;;;4.80;72.29;100544.36;1727879;83;21080;-69
2022/04/17 00:57:13;;;;;;;0.77;0.77;;;;;;;4.79;72.15;100546.64;1738863;82;21017;-69
2022/04/17 00:59:45;;;;;;;0.90;0.90;;;;;;;4.81;72.30;100547.33;1713564;83;21093;-69
2022/04/17 01:02:14;;;;;;;0.90;0.90;;;;;;;4.82;72.45;100541.08;1718646;82;21082;-70
2022/04/17 01:04:41;;;;;;;1.67;1.00;;;;;;;4.77;72.81;100542.49;1705667;83;21024;-69
2022/04/17 01:07:12;;;;;;;0.77;0.77;;;;;;;4.73;72.91;100539.31;1677717;83;21074;-70
2022/04/17 01:09:39;;;;;;;1.50;1.40;;;;;;;4.75;72.97;100541.31;1696734;83;21120;-69
2022/04/17 01:12:10;;;;;;;;;;;;;;;4.75;72.94;100540.48;1729221;82;21023;-68
2022/04/17 01:14:39;;;;;;;1.20;1.00;;;;;;;4.76;73.03;100541.64;1696386;83;20280;-70
2022/04/17 01:17:07;;;;;;;0.70;0.70;;;;;;;4.74;73.13;100542.27;1721373;82;21559;-69
2022/04/17 01:19:39;;;;;;;0.73;0.73;;;;;;;4.79;73.15;100544.00;1698570;83;21057;-69
2022/04/17 01:22:08;;;;;;;1.27;1.27;;;;;;;4.80;73.23;100537.75;1723850;81;21067;-69
2022/04/17 01:27:22;;;;;;;0.70;0.70;;;;;;;4.74;73.29;100540.12;1695921;84;21077;-70
2022/04/17 01:29:50;;;;;;;1.27;1.17;;;;;;;4.71;73.38;100532.02;1662444;85;21141;-68
2022/04/17 01:32:17;;;;;;;1.00;1.00;;;;;;;4.70;73.47;100538.27;1682266;84;21533;-69
2022/04/17 01:34:44;;;;;;;0.70;0.70;;;;;;;4.69;73.54;100539.27;1681411;84;21501;-69
2022/04/17 01:37:12;;;;;;;0.60;0.57;;;;;;;4.75;73.69;100537.84;1683014;84;21094;-69
2022/04/17 01:39:38;;;;;;;0.70;0.70;;;;;;;4.78;73.69;100533.58;1683388;84;21167;-70
2022/04/17 01:42:06;;;;;;;0.47;0.47;;;;;;;4.76;74.22;100538.17;1682867;84;21564;-69
2022/04/17 01:44:34;;;;;;;0.70;0.70;;;;;;;4.74;74.41;100529.56;1683638;84;21018;-70
2022/04/17 01:47:02;;;;;;;0.70;0.70;;;;;;;4.74;74.64;100529.07;1697814;83;22149;-68
2022/04/17 01:49:31;;;;;;;0.60;0.60;;;;;;;4.65;75.29;100533.44;1690794;83;21495;-69
2022/04/17 01:51:58;;;;;;;0.83;0.83;;;;;;;4.59;75.49;100528.71;1698626;83;21664;-70
2022/04/17 01:54:25;;;;;;;0.85;0.85;;;;;;;4.59;75.73;100529.20;1692387;85;22157;-69
2022/04/17 01:56:52;;;;;;;1.03;0.57;;;;;;;4.57;76.01;100524.06;1659597;85;21139;-69
2022/04/17 01:59:21;;;;;;;0.90;0.50;;;;;;;4.57;75.84;100529.84;1707425;81;21523;-69
2022/04/17 02:01:50;;;;;;;1.43;0.93;;;;;;;4.49;76.17;100526.11;1712678;82;21564;-69
2022/04/17 02:04:17;;;;;;;0.30;0.30;;;;;;;4.40;76.70;100530.93;1728697;81;21076;-70
2022/04/17 02:06:45;;;;;;;0.10;0.10;;;;;;;4.31;77.01;100530.47;1711931;82;21121;-69
2022/04/17 02:09:14;;;;;;;1.13;0.40;;;;;;;4.21;77.60;100541.05;1712161;81;21092;-68
2022/04/17 02:11:42;;;;;;;0.87;0.60;;;;;;;4.14;78.04;100538.63;1701432;83;21095;-70
2022/04/17 02:14:10;;;;;;;0.30;0.30;;;;;;;4.10;78.38;100538.08;1680085;85;21168;-69
2022/04/17 02:16:39;;;;;;;0.50;0.40;;;;;;;4.05;78.62;100538.15;1677804;84;21042;-69
2022/04/17 02:19:06;;;;;;;0.43;0.43;;;;;;;3.95;79.04;100532.89;1657834;84;21170;-69
2022/04/17 02:21:34;;;;;;;0.73;0.50;;;;;;;3.84;80.04;100535.22;1685099;84;21122;-70
2022/04/17 02:24:00;;;;;;;0.40;0.40;;;;;;;3.80;80.43;100530.34;1660612;84;21050;-69
2022/04/17 02:26:27;;;;;;;0.40;0.40;;;;;;;3.79;80.84;100525.56;1669854;84;21076;-70
2022/04/17 02:28:56;;;;;;;;;;;;;;;3.79;81.66;100529.52;1653988;85;21116;-70
2022/04/17 02:31:23;;;;;;;0.60;0.60;;;;;;;3.79;81.77;100526.88;1675248;84;20473;-71
2022/04/17 02:33:51;;;;;;;0.70;0.70;;;;;;;3.77;82.14;100524.02;1678056;83;21107;-70
2022/04/17 02:36:19;;;;;;;1.57;0.70;;;;;;;3.75;82.97;100522.01;1701792;83;21135;-70
2022/04/17 02:38:45;;;;;;;0.77;0.70;;;;;;;3.73;82.81;100524.81;1702725;83;21048;-70
2022/04/17 02:41:12;;;;;;;0.53;0.53;;;;;;;3.70;83.04;100520.62;1690681;82;21604;-70
2022/04/17 02:43:41;;;;;;;;;;;;;;;3.69;83.39;100524.25;1707030;83;21080;-70
2022/04/17 02:46:07;;;;;;;0.80;0.80;;;;;;;3.70;83.72;100521.95;1704719;83;20205;-70
2022/04/17 02:48:35;;;;;;;0.50;0.50;;;;;;;3.63;83.96;100527.42;1714200;83;21655;-71
2022/04/17 02:51:02;;;;;;;1.00;0.55;;;;;;;3.50;84.47;100526.86;1703366;83;21052;-70
2022/04/17 02:53:31;;;;;;;0.80;0.50;;;;;;;3.33;84.38;100532.33;1700754;83;21570;-70
2022/04/17 02:55:57;;;;;;;0.50;0.50;;;;;;;3.19;84.77;100524.83;1694638;83;21064;-70
2022/04/17 02:58:24;;;;;;;0.83;0.40;;;;;;;3.06;85.05;100526.39;1715453;83;21085;-69
2022/04/17 03:06:23;;;;;;;0.80;0.30;;;;;;;2.92;86.05;100516.59;1688055;83;21077;-71
2022/04/17 03:08:52;;;;;;;0.10;0.10;;;;;;;2.92;86.57;100517.91;1702467;83;21101;-71
2022/04/17 03:11:20;;;;;;;0.30;0.30;;;;;;;2.89;86.51;100514.70;1696240;83;21026;-71
2022/04/17 03:13:48;;;;;;;0.20;0.20;;;;;;;2.93;86.67;100520.88;1667596;84;21129;-69
2022/04/17 03:16:15;;;;;;;0.20;0.20;;;;;;;3.00;86.90;100519.04;1660849;84;21660;-70
2022/04/17 03:18:42;;;;;;;0.23;0.20;;;;;;;3.06;86.96;100521.95;1653349;84;21150;-70
2022/04/17 03:21:09;;;;;;;0.20;0.20;;;;;;;3.10;86.97;100514.13;1657532;84;21124;-68
2022/04/17 03:23:35;;;;;;;0.20;0.20;;;;;;;3.19;87.17;100511.66;1671001;84;21049;-70
2022/04/17 03:26:01;;;;;;;0.20;0.20;;;;;;;3.25;87.48;100511.11;1695924;83;21034;-70
2022/04/17 03:28:29;;;;;;;0.93;0.37;;;;;;;3.31;87.47;100514.05;1697671;83;21150;-70
2022/04/17 03:30:56;;;;;;;0.30;0.17;;;;;;;3.37;87.74;100514.44;1687143;83;21043;-69
2022/04/17 03:33:23;;;;;;;0.10;0.10;;;;;;;3.41;87.70;100511.87;1696628;83;21161;-69
2022/04/17 03:35:51;;;;;;;0.50;0.23;;;;;;;3.46;87.92;100521.03;1722073;82;21134;-70
2022/04/17 03:38:17;;;;;;;0.40;0.20;;;;;;;3.50;87.94;100511.91;1722672;82;21124;-70
2022/04/17 03:40:43;;;;;;;0.30;0.30;;;;;;;3.56;88.17;100512.30;1722612;82;21002;-70
2022/04/17 03:43:11;;;;;;;0.40;0.37;;;;;;;3.57;88.01;100517.94;1703123;83;21080;-69
2022/04/17 03:45:37;;;;;;;0.37;0.37;;;;;;;3.48;87.78;100514.31;1699429;82;21117;-68
2022/04/17 03:48:05;;;;;;;0.40;0.20;;;;;;;3.45;88.34;100517.24;1692527;83;21151;-70
2022/04/17 03:50:33;;;;;;;0.20;0.20;;;;;;;3.46;88.48;100520.21;1682520;84;21127;-70
2022/04/17 03:52:59;;;;;;;0.30;0.20;;;;;;;3.42;88.51;100512.23;1668816;84;21151;-71
2022/04/17 03:55:26;;;;;;;0.20;0.20;;;;;;;3.51;88.66;100518.83;1668719;84;21511;-71
2022/04/17 03:57:54;;;;;;;0.30;0.30;;;;;;;3.55;88.80;100522.52;1658578;85;21116;-70
2022/04/17 04:00:20;;;;;;;0.30;0.30;;;;;;;3.61;88.90;100531.18;1668653;83;21071;-70
2022/04/17 04:02:51;;;;;;;0.20;0.20;;;;;;;3.62;88.73;100533.69;1669880;84;21173;-69
2022/04/17 04:05:19;;;;;;;0.30;0.30;;;;;;;3.58;88.24;100532.30;1687339;83;21090;-69
2022/04/17 04:07:47;;;;;;;0.30;0.30;;;;;;;3.55;88.24;100533.06;1686653;84;21091;-71
2022/04/17 04:10:16;;;;;;;0.40;0.40;;;;;;;3.55;88.07;100536.52;1687251;83;21283;-72
2022/04/17 04:12:43;;;;;;;0.80;0.50;;;;;;;3.57;88.10;100538.52;1687272;83;21117;-69
2022/04/17 04:15:09;;;;;;;;;;;;;;;3.62;88.06;100541.59;1671835;84;21474;-69
2022/04/17 04:17:37;;;;;;;0.33;0.30;;;;;;;3.63;87.94;100537.97;1687576;83;20135;-68
2022/04/17 04:20:07;;;;;;;0.50;0.50;;;;;;;3.61;87.97;100539.91;1670488;83;21125;-69
2022/04/17 04:22:34;;;;;;;0.33;0.33;;;;;;;3.66;87.99;100544.78;1689358;82;22241;-70
2022/04/17 04:25:02;;;;;;;0.40;0.40;;;;;;;3.68;87.83;100544.98;1709583;82;21277;-71
2022/04/17 04:30:14;;;;;;;0.67;0.67;;;;;;;3.76;87.80;100545.61;1693786;82;20241;-68
2022/04/17 04:32:56;;;;;;;0.60;0.60;;;;;;;3.73;87.52;100549.00;1710584;82;21038;-71
2022/04/17 04:35:26;;;;;;;0.67;0.67;;;;;;;3.77;87.71;100549.06;1691955;82;21053;-70
2022/04/17 04:37:54;;;;;;;0.70;0.70;;;;;;;3.83;87.78;100548.04;1710185;82;21113;-70
2022/04/17 04:40:20;;;;;;;0.70;0.70;;;;;;;3.88;87.42;100551.56;1705503;82;21038;-71
2022/04/17 04:42:48;;;;;;;0.60;0.53;;;;;;;3.92;87.33;100553.44;1694385;82;21898;-70
2022/04/17 04:48:00;;;;;;;0.43;0.33;;;;;;;4.03;87.69;100560.73;1695628;83;21018;-71
2022/04/17 04:50:28;;;;;;;0.50;0.50;;;;;;;4.08;87.14;100559.81;1695468;83;21550;-71
2022/04/17 04:52:56;;;;;;;0.40;0.40;;;;;;;4.08;87.00;100559.81;1695199;83;21129;-70
2022/04/17 04:55:23;;;;;;;0.68;0.53;;;;;;;4.08;86.77;100566.41;1696949;83;21168;-71
2022/04/17 04:57:49;;;;;;;0.40;0.40;;;;;;;4.08;86.28;100564.26;1707863;82;21040;-70
2022/04/17 05:00:17;;;;;;;1.27;1.13;;;;;;;4.07;86.27;100571.34;1707402;83;21551;-70
2022/04/17 05:02:43;;;;;;;0.55;0.55;;;;;;;4.11;86.41;100563.98;1707942;82;21088;-71
2022/04/17 05:05:10;;;;;;;0.98;0.98;;;;;;;4.12;86.30;100566.13;1679471;84;21100;-69
2022/04/17 05:07:38;;;;;;;0.80;0.80;;;;;;;4.13;86.37;100555.94;1659001;85;21373;-69
2022/04/17 05:10:08;;;;;;;1.03;0.47;;;;;;;4.15;86.58;100565.37;1691937;83;20983;-67
2022/04/17 05:12:37;;;;;;;1.10;1.10;;;;;;;4.15;86.48;100569.33;1695678;82;21298;-68
2022/04/17 05:15:06;;;;;;;0.60;0.60;;;;;;;4.16;85.88;100564.88;1714192;82;21024;-69
2022/04/17 05:17:32;;;;;;;0.50;0.43;;;;;;;4.17;85.73;100573.97;1700417;83;21176;-70
2022/04/17 05:20:00;;;;;;;0.60;0.50;;;;;;;4.16;86.13;100567.52;1699559;83;21013;-71
2022/04/17 05:23:45;;;;;;;0.80;0.80;;;;;;;4.17;85.68;100561.27;1725566;77;22314;-70
2022/04/17 05:26:11;;;;;;;0.53;0.53;;;;;;;4.12;85.54;100562.17;1660653;84;21498;-71
2022/04/17 05:28:37;;;;;;;0.60;0.55;;;;;;;4.14;85.29;100569.45;1669435;86;21081;-69
2022/04/17 05:31:05;;;;;;;0.60;0.60;;;;;;;4.14;85.29;100569.45;1667111;84;21513;-70
2022/04/17 05:33:31;;;;;;;1.10;1.10;;;;;;;4.14;85.85;100570.28;1656584;84;21066;-70
2022/04/17 05:35:57;;;;;;;1.15;0.75;;;;;;;4.15;85.97;100571.96;1667908;84;21059;-71
2022/04/17 05:38:23;;;;;;;1.32;0.75;;;;;;;4.18;86.64;100559.82;1671603;86;21597;-70
2022/04/17 05:40:53;;;;;;;;;;;;;;;4.23;86.73;100567.30;1670690;84;21066;-70
2022/04/17 05:43:21;;;;;;;0.93;0.57;;;;;;;4.26;86.18;100573.63;1663386;84;20133;-70
2022/04/17 05:45:49;;;;;;;0.70;0.60;;;;;;;4.28;86.61;100574.31;1678247;83;21123;-69
2022/04/17 05:48:15;;;;;;;;;;;;;;;3.94;85.55;100515.88;1676869;83;21142;-69
2022/04/17 05:50:41;;;;;;;1.13;1.03;;;;;;;4.33;85.47;100577.33;1697325;83;20777;-70
2022/04/17 05:53:09;;;;;;;0.73;0.73;;;;;;;4.32;85.59;100576.19;1698647;83;21043;-71
2022/04/17 05:55:36;;;;;;;;;;;;;;;4.33;85.16;100581.79;1691880;83;21077;-70
2022/04/17 05:58:03;;;;;;;0.53;0.53;;;;;;;4.29;85.03;100580.77;1676448;84;20442;-70
2022/04/17 06:00:31;;;;;;;0.60;0.60;;;;;;;4.25;85.99;100582.50;1683791;83;21090;-71
2022/04/17 06:02:58;;;;;;;0.60;0.43;;;;;;;4.26;86.00;100578.91;1702480;83;21120;-70
2022/04/17 06:05:24;;;;;;;0.90;0.80;;;;;;;4.23;85.26;100581.31;1699219;83;21558;-71
2022/04/17 06:07:50;;;;;;;1.30;1.30;;;;;;;4.19;85.10;100579.11;1701620;83;21034;-69
2022/04/17 06:10:18;;;;;;;1.07;1.07;;;;;;;4.15;85.52;100573.78;1727494;83;21013;-70
2022/04/17 06:12:44;;;;;;;1.37;1.32;;;;;;;4.10;85.56;100580.28;1686664;82;21505;-71
2022/04/17 06:15:11;;;;;;;1.45;1.45;;;;;;;4.14;86.15;100579.52;1656647;85;21027;-70
2022/04/17 06:17:42;;;;;;;1.20;1.10;;;;;;;4.17;86.13;100585.84;1659074;85;21165;-71
2022/04/17 06:20:12;;;;;;;1.03;1.03;;;;;;;4.16;85.87;100582.84;1664811;85;21295;-69
2022/04/17 06:22:41;;;;;;;0.90;0.90;;;;;;;4.16;85.80;100588.12;1665685;84;21100;-68
2022/04/17 06:25:13;;;;;;;0.70;0.70;;;;;;;4.17;86.20;100585.84;1701414;83;21037;-70
2022/04/17 06:27:48;;;;;;;0.77;0.77;;;;;;;4.16;86.23;100587.30;1701202;83;21053;-69
2022/04/17 06:30:19;;;;;;;0.73;0.60;;;;;;;4.13;86.21;100587.59;1701634;83;21540;-70
2022/04/17 06:32:46;;;;;;;0.50;0.50;;;;;;;4.16;86.56;100589.94;1700317;83;21077;-71
2022/04/17 06:35:14;;;;;;;0.60;0.60;;;;;;;4.18;86.33;100589.30;1627346;85;21090;-71
2022/04/17 06:37:53;;;;;;;0.60;0.53;;;;;;;4.14;86.09;100594.03;1653851;86;21047;-70
2022/04/17 06:40:36;;;;;;;0.60;0.60;;;;;;;4.12;86.52;100589.87;1649679;86;21150;-70
2022/04/17 06:43:07;;;;;;;0.90;0.90;;;;;;;4.12;86.31;100596.47;1633209;86;21637;-71
2022/04/17 06:45:36;;;;;;;0.60;0.60;;;;;;;4.13;86.51;100591.55;1648458;86;21052;-71
2022/04/17 06:48:22;;;;;;;0.90;0.90;;;;;;;4.14;86.47;100592.70;1652484;86;21038;-70
2022/04/17 06:50:53;;;;;;;1.20;1.10;;;;;;;4.18;86.58;100592.80;1642520;86;21501;-69
2022/04/17 06:53:19;;;;;;;0.97;0.97;;;;;;;4.25;86.67;100595.20;1649660;86;21091;-69
2022/04/17 06:55:48;;;;;;;;;;;;;;;4.28;86.17;100588.83;1637522;86;21048;-70
2022/04/17 06:58:18;;;;;;;0.97;0.97;;;;;;;4.30;86.12;100586.88;1641792;86;20553;-69
2022/04/17 07:00:45;;;;;;;1.30;1.07;;;;;;;4.24;85.91;100594.87;1646926;85;21021;-69
2022/04/17 07:03:14;;;;;;;1.10;1.00;;;;;;;4.23;86.23;100590.55;1671251;84;21199;-70
2022/04/17 07:05:43;;;;;;;1.00;1.00;;;;;;;4.25;85.88;100595.69;1703004;84;21388;-70
2022/04/17 07:08:10;;;;;;;1.03;1.00;;;;;;;4.28;85.20;100600.70;1685711;84;21421;-71
2022/04/17 07:10:40;;;;;;;1.10;0.97;;;;;;;4.34;85.21;100598.81;1684797;84;21065;-69
2022/04/17 07:13:11;;;;;;;1.13;1.07;;;;;;;4.39;82.30;100604.97;1684361;84;21134;-70
2022/04/17 07:15:39;;;;;;;0.90;0.90;;;;;;;4.43;81.41;100603.23;1685196;84;21077;-68
2022/04/17 07:18:06;;;;;;;2.00;1.20;;;;;;;4.46;81.73;100604.29;1683723;84;21007;-70
2022/04/17 07:20:35;;;;;;;0.60;0.60;;;;;;;4.55;81.12;100599.94;1665880;84;21150;-72
2022/04/17 07:23:03;;;;;;;0.77;0.77;;;;;;;4.61;81.59;100585.34;1688562;83;21173;-70
2022/04/17 07:25:29;;;;;;;0.60;0.50;;;;;;;4.66;81.46;100597.63;1693182;83;21105;-70
2022/04/17 07:27:57;;;;;;;0.50;0.40;;;;;;;4.69;81.83;100597.35;1673944;83;21012;-73
2022/04/17 07:30:29;;;;;;;0.20;0.20;;;;;;;4.68;81.30;100608.38;1702708;83;21046;-69
2022/04/17 07:32:59;;;;;;;0.57;0.30;;;;;;;4.67;81.20;100614.66;1703158;83;21090;-70
2022/04/17 07:35:28;;;;;;;1.50;0.47;;;;;;;4.49;80.64;100607.94;1670310;83;21519;-71
2022/04/17 07:38:01;;;;;;;0.30;0.20;;;;;;;4.25;81.11;100600.97;1684722;83;21209;-70
2022/04/17 07:40:31;;;;;;;0.63;0.30;;;;;;;4.04;82.77;100594.04;1687129;83;21054;-70
2022/04/17 07:43:00;;;;;;;0.23;0.23;;;;;;;4.11;84.08;100607.52;1684929;83;21506;-70
2022/04/17 07:45:27;;;;;;;0.17;0.17;;;;;;;4.20;84.41;100603.19;1682138;83;21070;-71
2022/04/17 07:47:54;;;;;;;0.30;0.23;;;;;;;4.38;85.08;100598.86;1693279;83;21517;-70
2022/04/17 07:50:25;;;;;;;0.10;0.10;;;;;;;4.46;83.72;100590.23;1693462;83;21065;-69
2022/04/17 07:52:54;;;;;;;0.10;0.10;;;;;;;4.42;83.47;100600.23;1693688;83;21097;-69
2022/04/17 07:55:22;;;;;;;0.00;0.00;;;;;;;4.36;83.29;100603.45;1692617;83;21076;-71
2022/04/17 07:57:56;;;;;;;0.10;0.10;;;;;;;4.23;82.55;100610.84;1689002;83;21085;-70
2022/04/17 08:00:24;;;;;;;0.13;0.10;;;;;;;4.12;82.54;100605.70;1695056;83;21092;-70
2022/04/17 08:02:55;;;;;;;1.23;0.10;;;;;;;3.95;82.53;100602.78;1708127;82;21125;-70
2022/04/17 08:05:24;;;;;;;0.20;0.10;;;;;;;3.88;84.19;100600.34;1708561;82;21078;-70
2022/04/17 08:07:52;;;;;;;0.30;0.30;;;;;;;3.92;84.98;100595.63;1708210;82;21468;-70
2022/04/17 08:10:19;;;;;;;0.57;0.30;;;;;;;4.04;87.35;100590.08;1708385;82;21038;-71
2022/04/17 08:12:48;;;;;;;0.20;0.20;;;;;;;4.21;86.83;100587.22;1707362;82;20992;-70
2022/04/17 08:15:17;;;;;;;0.20;0.20;;;;;;;4.38;86.67;100590.13;1708033;82;21078;-70
2022/04/17 08:17:45;;;;;;;0.43;0.30;;;;;;;4.52;85.58;100591.01;1708341;82;21077;-69
2022/04/17 08:20:14;;;;;;;0.37;0.30;;;;;;;4.56;84.61;100588.88;1708044;82;21078;-69
2022/04/17 08:22:41;;;;;;;0.40;0.30;;;;;;;4.62;84.37;100590.48;1707234;82;21074;-71
2022/04/17 08:25:08;;;;;;;0.30;0.30;;;;;;;4.77;83.87;100586.89;1708372;82;21133;-72
2022/04/17 08:27:46;;;;;;;0.30;0.30;;;;;;;4.96;84.74;100580.70;1708366;82;21121;-69
2022/04/17 08:30:14;;;;;;;0.30;0.30;;;;;;;5.14;83.69;100583.41;1708341;82;21050;-71
2022/04/17 08:32:40;;;;;;;0.70;0.70;;;;;;;5.25;82.08;100580.56;1700749;82;21045;-69
2022/04/17 08:35:07;;;;;;;0.60;0.40;;;;;;;5.29;82.48;100577.61;1683566;83;21148;-72
2022/04/17 08:37:34;;;;;;;0.60;0.60;;;;;;;5.38;82.75;100569.62;1670456;83;21098;-70
2022/04/17 08:40:01;;;;;;;0.62;0.62;;;;;;;5.48;82.39;100577.48;1682021;83;21110;-70
2022/04/17 08:42:31;;;;;;;0.63;0.63;;;;;;;5.54;80.89;100580.02;1692204;83;21106;-70
2022/04/17 08:44:58;;;;;;;0.20;0.20;;;;;;;5.55;80.10;100586.98;1693104;83;21322;-71
2022/04/17 08:47:26;;;;;;;0.20;0.20;;;;;;;5.32;75.58;100578.15;1693513;83;21092;-70
2022/04/17 08:49:59;;;;;;;0.20;0.20;;;;;;;5.12;76.15;100564.70;1679373;83;21050;-70
2022/04/17 08:52:23;;;;;;;0.50;0.40;;;;;;;5.08;77.62;100561.52;1696081;83;21083;-71
2022/04/17 08:54:50;;;;;;;0.50;0.20;;;;;;;5.14;77.88;100572.84;1685282;83;21197;-70
2022/04/17 08:57:17;;;;;;;0.40;0.20;;;;;;;5.22;78.55;100583.49;1693454;83;21087;-71
2022/04/17 08:59:45;;;;;;;0.60;0.20;;;;;;;5.22;78.56;100590.60;1693236;83;21068;-71
2022/04/17 09:02:11;;;;;;;1.17;0.33;;;;;;;5.06;77.95;100596.50;1693197;82;21092;-71
2022/04/17 09:04:38;;;;;;;0.30;0.17;;;;;;;4.94;78.72;100595.04;1693912;83;21038;-72
2022/04/17 09:07:09;;;;;;;0.50;0.20;;;;;;;4.79;80.37;100592.03;1693438;83;21164;-70
2022/04/17 09:09:52;;;;;;;0.60;0.20;;;;;;;4.67;80.73;100599.28;1693391;83;21168;-70
2022/04/17 09:12:23;;;;;;;0.50;0.23;;;;;;;4.66;81.23;100606.37;1641477;85;21092;-71
2022/04/17 09:14:53;;;;;;;0.40;0.37;;;;;;;4.71;80.98;100599.83;1693447;84;21045;-69
2022/04/17 09:17:22;;;;;;;0.83;0.30;;;;;;;4.73;81.20;100598.72;1693082;84;21046;-71
2022/04/17 09:19:49;;;;;;;0.40;0.20;;;;;;;4.83;82.20;100589.44;1693562;83;21189;-70
2022/04/17 09:22:15;;;;;;;;;;;;;;;4.94;82.51;100591.08;1695822;83;21042;-71
2022/04/17 09:24:43;;;;;;;0.10;0.10;;;;;;;5.06;81.85;100599.97;1694668;83;20146;-71
2022/04/17 09:27:11;;;;;;;0.10;0.10;;;;;;;5.03;81.32;100599.45;1714180;83;21133;-70
2022/04/17 09:29:39;;;;;;;0.20;0.10;;;;;;;4.99;80.36;100592.30;1715897;81;21027;-69
2022/04/17 09:32:17;;;;;;;0.33;0.20;;;;;;;4.98;80.31;100593.77;1696925;81;21126;-70
2022/04/17 09:34:54;;;;;;;0.77;0.50;;;;;;;4.99;80.49;100597.59;1674556;83;21051;-70
2022/04/17 09:37:24;;;;;;;0.50;0.30;;;;;;;5.02;80.83;100597.78;1709063;83;21033;-70
2022/04/17 09:39:52;;;;;;;0.20;0.20;;;;;;;5.10;80.71;100578.05;1693280;83;21172;-69
2022/04/17 09:42:25;;;;;;;1.80;0.53;;;;;;;5.26;79.26;100584.03;1692427;83;21335;-70
2022/04/17 09:44:57;;;;;;;0.47;0.47;;;;;;;5.39;80.34;100582.36;1683474;83;21077;-70
2022/04/17 09:47:28;;;;;;;0.70;0.40;;;;;;;5.45;78.89;100581.27;1695386;84;21065;-69
2022/04/17 09:49:59;;;;;;;0.93;0.53;;;;;;;5.53;77.35;100586.30;1696433;83;21605;-70
2022/04/17 09:52:31;;;;;;;0.70;0.30;;;;;;;5.60;77.01;100585.55;1706017;83;21520;-70
2022/04/17 09:55:03;;;;;;;0.70;0.70;;;;;;;5.76;77.86;100590.66;1696037;83;21480;-71
2022/04/17 09:57:40;;;;;;;2.30;2.10;;;;;;;5.92;76.91;100558.24;1699115;83;22072;-71
2022/04/17 10:00:12;;;;;;;0.30;0.30;;;;;;;6.10;77.08;100566.17;1694879;83;22027;-70
2022/04/17 10:02:41;;;;;;;0.63;0.30;;;;;;;6.26;73.87;100566.31;1685081;83;21200;-71
2022/04/17 10:05:15;;;;;;;0.20;0.20;;;;;;;6.33;74.48;100566.03;1691550;83;21052;-71
2022/04/17 10:07:45;;;;;;;0.30;0.30;;;;;;;6.37;73.55;100569.20;1676348;83;21528;-71
2022/04/17 10:10:15;;;;;;;0.20;0.20;;;;;;;6.37;70.75;100570.03;1719439;83;21076;-71
2022/04/17 10:12:45;;;;;;;0.50;0.23;;;;;;;6.29;70.41;100589.84;1702462;82;21533;-71
2022/04/17 10:15:14;;;;;;;0.40;0.40;;;;;;;6.11;68.48;100584.56;1692409;84;21117;-71
2022/04/17 10:17:45;;;;;;;0.30;0.20;;;;;;;6.01;69.51;100584.64;1694000;84;21084;-71
2022/04/17 10:20:14;;;;;;;0.20;0.20;;;;;;;6.01;68.43;100570.09;1691903;83;21487;-71
2022/04/17 10:22:43;;;;;;;0.67;0.30;;;;;;;6.09;66.52;100582.56;1688219;83;21045;-69
2022/04/17 10:25:11;;;;;;;0.30;0.20;;;;;;;6.06;67.24;100570.13;1692326;83;21137;-69
2022/04/17 10:27:49;;;;;;;0.20;0.20;;;;;;;5.97;67.75;100575.36;1683285;83;21026;-70
2022/04/17 10:30:21;;;;;;;0.20;0.20;;;;;;;5.98;68.11;100561.12;1687368;83;21078;-73
2022/04/17 10:33:33;;;;;;;0.27;0.27;;;;;;;6.09;66.94;100569.83;1689648;83;21156;-70
2022/04/17 10:36:35;;;;;;;0.20;0.20;;;;;;;5.80;66.57;100505.57;1681483;83;21093;-69
2022/04/17 10:39:20;;;;;;;0.23;0.23;;;;;;;6.33;65.49;100561.21;1696488;83;21093;-72
2022/04/17 10:41:49;;;;;;;0.97;0.30;;;;;;;6.43;64.78;100563.28;1648654;85;21025;-71
2022/04/17 10:44:16;;;;;;;0.20;0.20;;;;;;;6.56;64.07;100557.57;1648540;85;21116;-70
2022/04/17 10:46:49;;;;;;;0.30;0.30;;;;;;;6.72;63.61;100561.61;1650333;85;21150;-70
2022/04/17 10:49:21;;;;;;;0.43;0.20;;;;;;;6.78;61.81;100546.91;1654939;85;21073;-70
2022/04/17 10:51:53;;;;;;;0.80;0.50;;;;;;;6.79;62.22;100556.53;1669351;85;21589;-70
2022/04/17 10:54:20;;;;;;;0.80;0.20;;;;;;;6.73;61.49;100554.02;1656819;85;21036;-71
2022/04/17 10:56:59;;;;;;;;;;;;;;;6.66;62.86;100546.86;1677136;83;21045;-70
2022/04/17 10:59:34;;;;;;;;;;;;;;;6.69;62.67;100557.97;1693136;83;20455;-71
2022/04/17 11:02:19;;;;;;;0.30;0.20;;;;;;;6.72;62.41;100558.96;1666205;85;20160;-69
2022/04/17 11:04:54;;;;;;;0.50;0.23;;;;;;;6.70;61.87;100558.30;1664794;85;21962;-72
2022/04/17 11:07:28;;;;;;;0.20;0.20;;;;;;;6.67;62.66;100548.03;1665711;85;21015;-70
2022/04/17 11:10:20;;;;;;;0.33;0.27;;;;;;;6.73;61.20;100547.89;1667531;85;21006;-71
2022/04/17 11:12:57;;;;;;;0.30;0.20;;;;;;;6.81;61.33;100552.72;1682076;83;21656;-70
2022/04/17 11:15:28;;;;;;;0.47;0.30;;;;;;;7.07;60.40;100539.91;1689184;83;21546;-69
2022/04/17 11:17:58;;;;;;;0.27;0.27;;;;;;;7.07;60.40;100539.91;1690265;83;22140;-71
2022/04/17 11:20:26;;;;;;;2.20;0.27;;;;;;;7.18;60.15;100532.17;1688757;83;21137;-69
2022/04/17 11:22:52;;;;;;;1.13;0.73;;;;;;;7.26;59.08;100530.03;1688265;83;21598;-69
2022/04/17 11:25:18;;;;;;;0.20;0.20;;;;;;;6.91;60.46;100465.65;1657959;85;21123;-69
2022/04/17 11:27:51;;;;;;;1.60;0.10;;;;;;;7.38;60.14;100523.41;1663717;85;21069;-71
2022/04/17 11:30:23;;;;;;;0.20;0.20;;;;;;;7.38;59.81;100524.27;1660301;85;21117;-70
2022/04/17 11:32:52;;;;;;;0.30;0.30;;;;;;;7.31;60.08;100522.41;1668407;85;21073;-70
2022/04/17 11:35:25;;;;;;;0.20;0.20;;;;;;;7.24;60.48;100529.38;1668711;84;21069;-69
2022/04/17 11:38:03;;;;;;;3.60;0.20;;;;;;;7.20;60.46;100531.01;1674824;84;21117;-70
2022/04/17 11:40:37;;;;;;;;;;;;;;;7.19;60.07;100517.41;1674081;84;21195;-70
2022/04/17 11:43:11;;;;;;;0.30;0.30;;;;;;;7.16;59.60;100518.25;1675041;84;20135;-70
2022/04/17 11:45:42;;;;;;;0.20;0.20;;;;;;;6.99;60.08;100506.77;1673872;84;22626;-71
2022/04/17 11:48:13;;;;;;;0.20;0.20;;;;;;;6.94;60.71;100512.53;1669878;84;21097;-69
2022/04/17 11:50:42;;;;;;;0.33;0.33;;;;;;;6.96;60.34;100529.60;1671812;84;21090;-69
2022/04/17 11:53:14;;;;;;;0.37;0.37;;;;;;;6.95;60.74;100534.08;1670904;84;21518;-70
2022/04/17 11:55:43;;;;;;;0.30;0.20;;;;;;;6.91;60.97;100538.52;1670802;84;21068;-71
2022/04/17 11:58:24;;;;;;;0.93;0.20;;;;;;;6.77;62.44;100531.52;1684213;83;21010;-70
2022/04/17 12:00:57;;;;;;;0.20;0.20;;;;;;;6.63;63.15;100526.83;1674858;83;22198;-69